Terminal Aerodrome Forecast
Issued by NWS

Home | Current Version | Previous Version | Text Only | Print | Product List | Glossary On
Versions: 1 2 3 4 5 6 7 8 9 10 11 12 13 14 15 16
000
FTUS46 KOTX 151223 AAA
TAFMWH
TAF AMD
KMWH 151223Z 1512/1612 17006KT 5SM BR BKN004 OVC018
      TEMPO 1512/1516 P6SM NSW SCT004 OVC018
     FM151800 21004KT 2SM -FZRAPL BR OVC010
     FM152200 17003KT 6SM BR OVC010=

USA.gov is the U.S. government's official web portal to all federal, state and local government web resources and services.